Time;durP1;ratioP1;P1;durP2;ratioP2;P2;SDS_P1;SDS_P2;PMS_P1;PMS_P2;Temp;Humidity;BMP_temperature;BMP_pressure;BME280_temperature;BME280_humidity;BME280_pressure;Samples;Min_cycle;Max_cycle;Signal;HPM_P1;HPM_P2
2023/02/28 00:00:32;;;;;;;0.10;0.10;;;0.80;99.90;;;;;;5018102;28;20210;-79
2023/02/28 00:02:57;;;;;;;0.10;0.10;;;0.80;99.90;;;;;;5022816;28;20200;-79
2023/02/28 00:05:25;;;;;;;0.10;0.10;;;0.90;99.90;;;;;;5021908;28;20219;-79
2023/02/28 00:07:51;;;;;;;0.10;0.10;;;0.90;99.90;;;;;;5018166;28;20189;-79
2023/02/28 00:10:20;;;;;;;0.10;0.10;;;0.80;99.90;;;;;;5021329;28;20176;-79
2023/02/28 00:12:47;;;;;;;0.10;0.10;;;0.90;99.90;;;;;;5022243;28;20189;-79
2023/02/28 00:15:13;;;;;;;0.10;0.10;;;0.90;99.90;;;;;;5020430;28;20239;-79
2023/02/28 00:17:38;;;;;;;0.10;0.10;;;1.00;99.90;;;;;;5023211;28;20221;-79
2023/02/28 00:20:11;;;;;;;0.10;0.10;;;1.00;99.90;;;;;;5024333;28;20191;-80
2023/02/28 00:22:42;;;;;;;0.10;0.10;;;0.90;99.90;;;;;;5019486;28;20318;-79
2023/02/28 00:25:10;;;;;;;0.10;0.10;;;0.90;99.90;;;;;;5022044;28;20260;-79
2023/02/28 00:27:37;;;;;;;0.10;0.10;;;0.90;99.90;;;;;;5021251;28;20187;-79
2023/02/28 00:30:04;;;;;;;0.00;0.00;;;0.90;99.90;;;;;;5024016;28;20184;-78
2023/02/28 00:32:30;;;;;;;0.10;0.10;;;0.90;99.90;;;;;;5023954;28;20286;-80
2023/02/28 00:34:55;;;;;;;0.10;0.10;;;0.90;99.90;;;;;;5024744;28;20408;-80
2023/02/28 00:37:21;;;;;;;0.10;0.10;;;0.90;99.90;;;;;;5026380;28;20198;-80
2023/02/28 00:39:47;;;;;;;0.10;0.10;;;0.90;99.90;;;;;;5023858;28;20234;-79
2023/02/28 00:42:12;;;;;;;0.10;0.10;;;0.90;99.90;;;;;;5025918;28;20221;-79
2023/02/28 00:44:38;;;;;;;0.10;0.10;;;0.80;99.90;;;;;;5024885;28;20207;-79
2023/02/28 00:47:04;;;;;;;0.10;0.10;;;0.90;99.90;;;;;;5022846;28;20254;-79
2023/02/28 00:49:29;;;;;;;0.10;0.10;;;0.80;99.90;;;;;;5026342;28;20187;-79
2023/02/28 00:51:55;;;;;;;0.10;0.10;;;0.80;99.90;;;;;;5026507;28;20260;-79
2023/02/28 00:54:22;;;;;;;0.20;0.20;;;0.70;99.90;;;;;;5021374;28;20217;-80
2023/02/28 00:56:48;;;;;;;0.10;0.10;;;0.70;99.90;;;;;;5026028;28;20210;-79
2023/02/28 00:59:15;;;;;;;0.10;0.10;;;0.60;99.90;;;;;;5024813;28;20237;-79
2023/02/28 01:01:41;;;;;;;0.10;0.10;;;0.60;99.90;;;;;;5027145;28;20225;-79
2023/02/28 01:04:07;;;;;;;0.10;0.10;;;0.60;99.90;;;;;;5024917;28;20193;-79
2023/02/28 01:06:33;;;;;;;0.10;0.10;;;0.50;99.90;;;;;;5025883;28;20186;-80
2023/02/28 01:08:59;;;;;;;0.10;0.10;;;0.50;99.90;;;;;;5025326;28;20234;-79
2023/02/28 01:11:25;;;;;;;0.10;0.10;;;0.40;99.90;;;;;;5024532;28;20190;-79
2023/02/28 01:13:51;;;;;;;0.10;0.10;;;0.40;99.90;;;;;;5025534;28;20307;-79
2023/02/28 01:16:17;;;;;;;0.10;0.10;;;0.40;99.90;;;;;;5018771;28;20195;-79
2023/02/28 01:18:43;;;;;;;0.10;0.10;;;0.40;99.90;;;;;;5022464;28;20201;-79
2023/02/28 01:21:12;;;;;;;0.10;0.10;;;0.30;99.90;;;;;;5025085;28;20217;-79
2023/02/28 01:23:39;;;;;;;0.10;0.10;;;0.30;99.90;;;;;;5021374;28;20194;-79
2023/02/28 01:26:19;;;;;;;0.10;0.10;;;0.30;99.90;;;;;;5025124;28;20214;-79
2023/02/28 01:28:45;;;;;;;0.00;0.00;;;0.30;99.90;;;;;;5025857;28;20625;-79
2023/02/28 01:31:11;;;;;;;0.10;0.10;;;0.30;99.90;;;;;;5024334;28;20297;-80
2023/02/28 01:33:37;;;;;;;0.10;0.10;;;0.30;99.90;;;;;;5024201;28;20193;-79
2023/02/28 01:36:06;;;;;;;0.10;0.10;;;0.20;99.90;;;;;;5018522;28;20208;-79
2023/02/28 01:38:33;;;;;;;0.10;0.10;;;0.10;99.90;;;;;;5025550;28;20276;-79
2023/02/28 01:40:58;;;;;;;0.10;0.10;;;0.20;99.90;;;;;;5025334;28;20182;-79
2023/02/28 01:43:27;;;;;;;0.10;0.10;;;0.20;99.90;;;;;;5020240;28;20196;-79
2023/02/28 01:45:54;;;;;;;0.93;0.93;;;0.10;99.90;;;;;;5023998;28;20215;-79
2023/02/28 01:48:23;;;;;;;0.10;0.10;;;0.10;99.90;;;;;;5024862;28;21160;-79
2023/02/28 01:50:49;;;;;;;0.10;0.10;;;0.10;99.90;;;;;;5025606;28;20207;-79
2023/02/28 01:53:21;;;;;;;0.10;0.10;;;0.20;99.90;;;;;;5023561;28;20195;-79
2023/02/28 01:55:50;;;;;;;0.10;0.10;;;0.20;99.90;;;;;;5021601;28;20212;-80
2023/02/28 01:58:16;;;;;;;0.10;0.10;;;0.30;99.90;;;;;;5022533;28;20640;-79
2023/02/28 02:00:42;;;;;;;0.10;0.10;;;0.30;99.90;;;;;;5019961;28;20209;-79
2023/02/28 02:03:14;;;;;;;0.10;0.10;;;0.30;99.90;;;;;;5019236;28;20186;-79
2023/02/28 02:05:41;;;;;;;0.10;0.10;;;0.20;99.90;;;;;;5022342;28;20321;-80
2023/02/28 02:08:13;;;;;;;0.10;0.10;;;0.20;99.90;;;;;;5025264;28;20183;-79
2023/02/28 02:10:43;;;;;;;0.10;0.10;;;0.20;99.90;;;;;;5024496;28;20195;-79
2023/02/28 02:13:29;;;;;;;0.10;0.10;;;0.20;99.90;;;;;;5023366;28;20248;-79
2023/02/28 02:16:10;;;;;;;0.10;0.10;;;0.10;99.90;;;;;;5023462;28;20203;-79
2023/02/28 02:18:47;;;;;;;0.10;0.10;;;0.10;99.90;;;;;;5024662;28;20243;-79
2023/02/28 02:21:18;;;;;;;0.10;0.10;;;0.00;99.90;;;;;;5024029;28;20222;-79
2023/02/28 02:24:13;;;;;;;0.10;0.10;;;0.00;99.90;;;;;;5023300;28;20191;-79
2023/02/28 02:27:04;;;;;;;0.00;0.00;;;0.00;99.90;;;;;;5024572;28;20208;-79
2023/02/28 02:29:50;;;;;;;0.10;0.10;;;0.00;99.90;;;;;;5022932;28;21204;-79
2023/02/28 02:32:57;;;;;;;0.10;0.10;;;-0.10;99.90;;;;;;5023596;28;20183;-79
2023/02/28 02:35:39;;;;;;;0.10;0.10;;;-0.10;99.90;;;;;;5008642;28;20237;-79
2023/02/28 02:38:10;;;;;;;0.10;0.10;;;-0.10;99.90;;;;;;5024007;28;20917;-79
2023/02/28 02:40:59;;;;;;;0.10;0.10;;;-0.10;99.90;;;;;;5024168;28;20198;-79
2023/02/28 02:43:44;;;;;;;0.10;0.10;;;-0.10;99.90;;;;;;5011513;28;20217;-79
2023/02/28 02:46:20;;;;;;;0.10;0.10;;;-0.10;99.90;;;;;;5022771;28;20233;-79
2023/02/28 02:48:47;;;;;;;0.10;0.10;;;-0.10;99.90;;;;;;5023033;28;20188;-79
2023/02/28 02:51:16;;;;;;;0.10;0.10;;;-0.10;99.90;;;;;;5023421;28;20249;-79
2023/02/28 02:53:54;;;;;;;0.10;0.10;;;-0.10;99.90;;;;;;5024229;28;20256;-79
2023/02/28 02:56:24;;;;;;;0.10;0.10;;;-0.10;99.90;;;;;;5021562;28;20260;-79
2023/02/28 02:58:53;;;;;;;0.10;0.10;;;-0.20;99.90;;;;;;5019748;28;20188;-79
2023/02/28 03:01:29;;;;;;;0.10;0.10;;;-0.10;99.90;;;;;;5021633;28;20292;-79
2023/02/28 03:04:04;;;;;;;3.07;2.97;;;-0.20;99.90;;;;;;5021664;28;20200;-79
2023/02/28 03:06:29;;;;;;;0.00;0.00;;;-0.20;99.90;;;;;;5023786;28;20195;-79
2023/02/28 03:08:55;;;;;;;0.10;0.10;;;-0.20;99.90;;;;;;5024395;28;20186;-80
2023/02/28 03:11:21;;;;;;;0.10;0.10;;;-0.30;99.90;;;;;;5022474;28;20194;-79
2023/02/28 03:13:52;;;;;;;0.10;0.10;;;-0.20;99.90;;;;;;5017579;28;20192;-79
2023/02/28 03:16:37;;;;;;;0.50;0.50;;;-0.20;99.90;;;;;;5022365;28;20256;-79
2023/02/28 03:19:23;;;;;;;3.17;3.03;;;-0.30;99.90;;;;;;5019714;28;21239;-79
2023/02/28 03:22:06;;;;;;;0.10;0.10;;;-0.30;99.90;;;;;;5025239;28;20205;-79
2023/02/28 03:24:59;;;;;;;0.10;0.10;;;-0.30;99.90;;;;;;5024892;28;20210;-79
2023/02/28 03:27:34;;;;;;;0.40;0.40;;;-0.30;99.90;;;;;;5006089;28;20199;-79
2023/02/28 03:30:19;;;;;;;0.10;0.10;;;-0.30;99.90;;;;;;5022089;28;20180;-79
2023/02/28 03:32:52;;;;;;;0.67;0.67;;;-0.30;99.90;;;;;;5002768;28;20189;-79
2023/02/28 03:35:23;;;;;;;0.10;0.10;;;-0.30;99.90;;;;;;5022959;28;20213;-80
2023/02/28 03:37:53;;;;;;;0.10;0.10;;;-0.20;99.90;;;;;;5018658;28;20532;-80
2023/02/28 03:40:24;;;;;;;0.10;0.10;;;-0.20;99.90;;;;;;5023308;28;20177;-79
2023/02/28 03:42:56;;;;;;;0.10;0.10;;;-0.30;99.90;;;;;;5021921;28;20217;-79
2023/02/28 03:45:27;;;;;;;0.10;0.10;;;-0.30;99.90;;;;;;5022242;28;20213;-79
2023/02/28 03:48:08;;;;;;;0.10;0.10;;;-0.30;99.90;;;;;;5021496;28;20568;-79
2023/02/28 03:50:40;;;;;;;0.10;0.10;;;-0.30;99.90;;;;;;5015599;28;20573;-79
2023/02/28 03:53:28;;;;;;;0.10;0.10;;;-0.40;99.90;;;;;;5022201;28;20194;-79
2023/02/28 03:56:12;;;;;;;0.10;0.10;;;-0.40;99.90;;;;;;5018847;28;20218;-79
2023/02/28 03:58:59;;;;;;;0.10;0.10;;;-0.40;99.90;;;;;;5018640;28;20194;-80
2023/02/28 04:01:36;;;;;;;0.10;0.10;;;-0.40;99.90;;;;;;5019067;28;20229;-78
2023/02/28 04:04:03;;;;;;;0.10;0.10;;;-0.40;99.90;;;;;;5019011;28;20185;-81
2023/02/28 04:06:32;;;;;;;0.10;0.10;;;-0.40;99.90;;;;;;5019878;28;20194;-79
2023/02/28 04:08:57;;;;;;;0.10;0.10;;;-0.40;99.90;;;;;;5022643;28;20193;-79
2023/02/28 04:11:27;;;;;;;0.10;0.10;;;-0.30;99.90;;;;;;5024617;28;20191;-79
2023/02/28 04:13:53;;;;;;;0.10;0.10;;;-0.40;99.90;;;;;;5019946;28;20544;-79
2023/02/28 04:16:18;;;;;;;0.10;0.10;;;-0.40;99.90;;;;;;5025638;28;20186;-80
2023/02/28 04:18:44;;;;;;;0.10;0.10;;;-0.40;99.90;;;;;;5024859;28;20186;-79
2023/02/28 04:21:11;;;;;;;0.10;0.10;;;-0.30;99.90;;;;;;5026331;28;20211;-79
2023/02/28 04:23:36;;;;;;;0.10;0.10;;;-0.30;99.90;;;;;;5027740;28;20183;-79
2023/02/28 04:26:02;;;;;;;0.10;0.10;;;-0.30;99.90;;;;;;5020278;28;20204;-78
2023/02/28 04:28:27;;;;;;;0.10;0.10;;;-0.20;99.90;;;;;;5020379;28;20190;-80
2023/02/28 04:30:58;;;;;;;0.10;0.10;;;-0.20;99.90;;;;;;5027255;28;20206;-79
2023/02/28 04:33:24;;;;;;;0.10;0.10;;;-0.20;99.90;;;;;;5025875;28;20383;-80
2023/02/28 04:35:59;;;;;;;0.10;0.10;;;-0.20;99.90;;;;;;5024784;28;20768;-79
2023/02/28 04:38:25;;;;;;;0.10;0.10;;;-0.30;99.90;;;;;;5025289;28;20182;-79
2023/02/28 04:40:50;;;;;;;0.10;0.10;;;-0.30;99.90;;;;;;5020128;28;20188;-80
2023/02/28 04:43:16;;;;;;;0.10;0.10;;;-0.20;99.90;;;;;;5028306;28;20185;-79
2023/02/28 04:45:41;;;;;;;0.10;0.10;;;-0.30;99.90;;;;;;5024693;28;20746;-80
2023/02/28 04:48:07;;;;;;;0.10;0.10;;;-0.30;99.90;;;;;;5021004;28;20181;-79
2023/02/28 04:50:32;;;;;;;0.10;0.10;;;-0.40;99.90;;;;;;5025258;28;20544;-79
2023/02/28 04:52:58;;;;;;;0.10;0.10;;;-0.40;99.90;;;;;;5027963;28;20186;-79
2023/02/28 04:55:24;;;;;;;0.10;0.10;;;-0.40;99.90;;;;;;5024191;28;20296;-79
2023/02/28 04:57:49;;;;;;;0.10;0.10;;;-0.40;99.90;;;;;;5022737;28;20190;-79
2023/02/28 05:00:16;;;;;;;0.10;0.10;;;-0.40;99.90;;;;;;5021053;28;20917;-80
2023/02/28 05:02:42;;;;;;;0.10;0.10;;;-0.50;99.90;;;;;;5026200;28;20227;-79
2023/02/28 05:05:08;;;;;;;0.10;0.10;;;-0.40;99.90;;;;;;5024484;28;20676;-79
2023/02/28 05:07:33;;;;;;;0.10;0.10;;;-0.40;99.90;;;;;;5025674;28;20186;-80
2023/02/28 05:09:59;;;;;;;0.10;0.10;;;-0.40;99.90;;;;;;5026970;28;20179;-80
2023/02/28 05:12:24;;;;;;;0.10;0.10;;;-0.30;99.90;;;;;;5022521;28;20187;-80
2023/02/28 05:14:50;;;;;;;0.00;0.00;;;-0.40;99.90;;;;;;5025429;28;20211;-79
2023/02/28 05:17:16;;;;;;;0.10;0.10;;;-0.40;99.90;;;;;;5022023;28;20269;-78
2023/02/28 05:19:41;;;;;;;0.10;0.10;;;-0.50;99.90;;;;;;5025986;28;20263;-79
2023/02/28 05:22:14;;;;;;;0.10;0.10;;;-0.40;99.90;;;;;;5025980;28;20209;-79
2023/02/28 05:24:39;;;;;;;0.10;0.10;;;-0.40;99.90;;;;;;5023857;28;20207;-80
2023/02/28 05:27:05;;;;;;;0.10;0.10;;;-0.40;99.90;;;;;;5022846;28;20702;-79
2023/02/28 05:29:30;;;;;;;0.10;0.10;;;-0.40;99.90;;;;;;5020176;28;20186;-80
2023/02/28 05:31:56;;;;;;;0.10;0.10;;;-0.40;99.90;;;;;;5023844;28;20210;-79
2023/02/28 05:34:21;;;;;;;0.10;0.10;;;-0.30;99.90;;;;;;5025362;28;20210;-80
2023/02/28 05:36:47;;;;;;;0.10;0.10;;;-0.40;99.90;;;;;;5024322;28;20660;-79
2023/02/28 05:39:12;;;;;;;1.90;1.90;;;-0.30;99.90;;;;;;5025979;28;20656;-79
2023/02/28 05:41:42;;;;;;;0.10;0.10;;;-0.30;99.90;;;;;;5019395;28;20217;-80
2023/02/28 05:44:08;;;;;;;0.20;0.20;;;-0.40;99.90;;;;;;5024413;28;20273;-80
2023/02/28 05:46:34;;;;;;;0.10;0.10;;;-0.30;99.90;;;;;;5022829;28;20226;-79
2023/02/28 05:49:00;;;;;;;0.10;0.10;;;-0.30;99.90;;;;;;5019035;28;20654;-80
2023/02/28 05:51:26;;;;;;;0.10;0.10;;;-0.30;99.90;;;;;;5024418;28;20212;-80
2023/02/28 05:53:51;;;;;;;0.10;0.10;;;-0.30;99.90;;;;;;5021568;28;20850;-79
2023/02/28 05:56:17;;;;;;;0.10;0.10;;;-0.20;99.90;;;;;;5026201;28;20203;-79
2023/02/28 05:58:42;;;;;;;0.10;0.10;;;-0.20;99.90;;;;;;5017503;28;20202;-78
2023/02/28 06:01:30;;;;;;;0.10;0.10;;;-0.10;99.90;;;;;;5024165;28;20870;-79
2023/02/28 06:03:55;;;;;;;0.10;0.10;;;-0.10;99.90;;;;;;5023660;28;20282;-79
2023/02/28 06:06:21;;;;;;;0.10;0.10;;;-0.10;99.90;;;;;;5024211;28;20712;-78
2023/02/28 06:08:47;;;;;;;0.10;0.10;;;-0.10;99.90;;;;;;5023189;28;20236;-79
2023/02/28 06:11:12;;;;;;;0.10;0.10;;;0.00;99.90;;;;;;5019022;28;20184;-79
2023/02/28 06:13:38;;;;;;;0.10;0.10;;;0.00;99.90;;;;;;5022534;28;20217;-79
2023/02/28 06:16:04;;;;;;;0.10;0.10;;;-0.10;99.90;;;;;;5022219;28;20324;-81
2023/02/28 06:18:29;;;;;;;0.10;0.10;;;-0.10;99.90;;;;;;5024317;28;20241;-80
2023/02/28 06:20:55;;;;;;;0.10;0.10;;;-0.10;99.90;;;;;;5016582;28;20182;-81
2023/02/28 06:23:22;;;;;;;0.10;0.10;;;-0.20;99.90;;;;;;5020780;28;20223;-79
2023/02/28 06:25:47;;;;;;;0.10;0.10;;;-0.20;99.90;;;;;;5013653;28;20212;-79
2023/02/28 06:28:13;;;;;;;0.93;0.93;;;-0.10;99.90;;;;;;5018472;28;21120;-80
2023/02/28 06:30:39;;;;;;;0.10;0.10;;;-0.20;99.90;;;;;;5018749;28;20182;-80
2023/02/28 06:33:04;;;;;;;0.10;0.10;;;-0.20;99.90;;;;;;5014556;28;20190;-79
2023/02/28 06:35:30;;;;;;;0.10;0.10;;;-0.20;99.90;;;;;;5020416;28;20233;-79
2023/02/28 06:37:56;;;;;;;0.10;0.10;;;-0.20;99.90;;;;;;5021781;28;20189;-79
2023/02/28 06:40:22;;;;;;;0.20;0.20;;;-0.10;99.90;;;;;;5022435;28;20953;-79
2023/02/28 06:42:48;;;;;;;0.10;0.10;;;-0.10;99.90;;;;;;5024166;28;20198;-80
2023/02/28 06:45:13;;;;;;;0.10;0.10;;;0.00;99.90;;;;;;5024487;28;20206;-79
2023/02/28 06:47:40;;;;;;;0.10;0.10;;;0.10;99.90;;;;;;5025814;28;20220;-79
2023/02/28 06:50:09;;;;;;;0.10;0.10;;;0.20;99.90;;;;;;5022381;28;20183;-79
2023/02/28 06:52:37;;;;;;;0.10;0.10;;;0.30;99.90;;;;;;5022571;28;20186;-80
2023/02/28 06:55:04;;;;;;;0.10;0.10;;;0.30;99.90;;;;;;5023414;28;20231;-79
2023/02/28 06:57:31;;;;;;;0.10;0.10;;;0.40;99.90;;;;;;5020183;28;20728;-79
2023/02/28 07:00:02;;;;;;;0.10;0.10;;;0.60;99.90;;;;;;5022960;28;20194;-80
2023/02/28 07:02:28;;;;;;;0.10;0.10;;;0.70;99.90;;;;;;5015937;28;20207;-80
2023/02/28 07:04:54;;;;;;;0.10;0.10;;;0.70;99.90;;;;;;5019020;28;20745;-79
2023/02/28 07:07:20;;;;;;;0.10;0.10;;;0.70;99.90;;;;;;5021845;28;20193;-80
2023/02/28 07:09:45;;;;;;;0.10;0.10;;;0.80;99.90;;;;;;5019686;28;20186;-79
2023/02/28 07:12:11;;;;;;;0.10;0.10;;;0.90;99.90;;;;;;5016259;28;20222;-80
2023/02/28 07:14:37;;;;;;;0.10;0.10;;;1.00;99.90;;;;;;5021805;28;20210;-80
2023/02/28 07:17:03;;;;;;;0.10;0.10;;;1.10;99.90;;;;;;5017803;28;20178;-80
2023/02/28 07:19:29;;;;;;;0.10;0.10;;;1.20;99.90;;;;;;5022213;28;20189;-79
2023/02/28 07:21:54;;;;;;;0.10;0.10;;;1.20;99.90;;;;;;5017162;28;20258;-80
2023/02/28 07:24:20;;;;;;;0.10;0.10;;;1.20;99.90;;;;;;5019448;28;20203;-79
2023/02/28 07:26:46;;;;;;;0.10;0.10;;;1.30;99.90;;;;;;5020400;28;20211;-79
2023/02/28 07:29:11;;;;;;;0.00;0.00;;;1.30;99.90;;;;;;5021048;28;20224;-80
2023/02/28 07:31:37;;;;;;;4.13;3.97;;;1.40;99.90;;;;;;5015043;28;20283;-80
2023/02/28 07:34:02;;;;;;;0.10;0.10;;;1.50;99.90;;;;;;5008832;28;20195;-80
2023/02/28 07:36:28;;;;;;;0.00;0.00;;;1.60;99.90;;;;;;5015391;28;20187;-80
2023/02/28 07:38:54;;;;;;;0.10;0.10;;;1.70;99.90;;;;;;5020973;28;20284;-80
2023/02/28 07:41:21;;;;;;;0.10;0.10;;;1.70;99.90;;;;;;5017479;28;20216;-80
2023/02/28 07:43:47;;;;;;;0.10;0.10;;;1.80;99.90;;;;;;5017596;28;20191;-79
2023/02/28 07:46:15;;;;;;;0.10;0.10;;;1.90;99.90;;;;;;5022316;28;20220;-80
2023/02/28 07:48:41;;;;;;;0.10;0.10;;;1.90;99.90;;;;;;5021461;28;20203;-80
2023/02/28 07:51:07;;;;;;;0.10;0.10;;;1.80;99.90;;;;;;5021055;28;20190;-80
2023/02/28 07:53:33;;;;;;;0.00;0.00;;;2.00;99.90;;;;;;5022748;28;20677;-80
2023/02/28 07:56:00;;;;;;;0.10;0.10;;;2.00;99.90;;;;;;5014823;28;20203;-79
2023/02/28 07:58:27;;;;;;;0.10;0.10;;;2.10;99.90;;;;;;5020292;28;20191;-80
2023/02/28 08:00:52;;;;;;;0.10;0.10;;;2.30;99.90;;;;;;5020828;28;20719;-79
2023/02/28 08:03:21;;;;;;;0.10;0.10;;;2.20;99.90;;;;;;5019815;28;20227;-80
2023/02/28 08:05:47;;;;;;;0.10;0.10;;;2.40;99.90;;;;;;5016982;28;20210;-80
2023/02/28 08:08:13;;;;;;;0.10;0.10;;;2.60;99.90;;;;;;5021042;28;20737;-80
2023/02/28 08:10:39;;;;;;;0.10;0.10;;;2.60;99.90;;;;;;5019840;28;20200;-80
2023/02/28 08:13:04;;;;;;;0.10;0.10;;;2.50;99.90;;;;;;5016475;28;20201;-80
2023/02/28 08:15:30;;;;;;;0.10;0.10;;;2.50;99.90;;;;;;5018461;28;20559;-80
2023/02/28 08:17:56;;;;;;;0.10;0.10;;;2.50;99.90;;;;;;5021121;28;20196;-78
2023/02/28 08:20:22;;;;;;;0.10;0.10;;;2.40;99.90;;;;;;5017265;28;20291;-80
2023/02/28 08:22:48;;;;;;;0.10;0.10;;;2.40;99.90;;;;;;5017850;28;20213;-79
2023/02/28 08:25:13;;;;;;;0.10;0.10;;;2.50;99.90;;;;;;5014784;28;20327;-80
2023/02/28 08:27:39;;;;;;;0.10;0.10;;;2.50;99.90;;;;;;5020558;28;20261;-80
2023/02/28 08:30:05;;;;;;;0.10;0.10;;;2.50;99.90;;;;;;5042784;28;20193;-80
2023/02/28 08:32:33;;;;;;;3.33;3.23;;;2.70;99.90;;;;;;5025763;28;20208;-79
2023/02/28 08:34:58;;;;;;;0.07;0.07;;;2.70;99.90;;;;;;5026296;28;20567;-79
2023/02/28 08:37:24;;;;;;;0.93;0.93;;;2.80;99.90;;;;;;5024959;28;20196;-79
2023/02/28 08:39:50;;;;;;;0.10;0.10;;;2.90;99.90;;;;;;5023112;28;20187;-79
2023/02/28 08:42:15;;;;;;;0.03;0.03;;;2.90;99.90;;;;;;5024210;28;20218;-83
2023/02/28 08:44:41;;;;;;;0.10;0.10;;;3.00;99.90;;;;;;5021452;28;20212;-80
2023/02/28 08:47:06;;;;;;;0.10;0.10;;;2.70;99.90;;;;;;5022003;28;20279;-88
2023/02/28 08:49:32;;;;;;;0.10;0.10;;;3.00;99.90;;;;;;5018413;28;20198;-80
2023/02/28 08:51:58;;;;;;;0.10;0.10;;;2.90;99.90;;;;;;5021373;28;20537;-80
2023/02/28 08:54:24;;;;;;;0.10;0.10;;;2.90;99.90;;;;;;5021601;28;20631;-79
2023/02/28 08:56:49;;;;;;;0.10;0.10;;;3.10;99.90;;;;;;5025773;28;20189;-80
2023/02/28 08:59:15;;;;;;;0.10;0.10;;;3.50;99.90;;;;;;5023029;28;20256;-80
2023/02/28 09:01:41;;;;;;;0.10;0.10;;;3.00;99.90;;;;;;5025101;28;20286;-81
2023/02/28 09:04:08;;;;;;;0.10;0.10;;;2.90;99.90;;;;;;5024887;28;20189;-79
2023/02/28 09:06:34;;;;;;;0.00;0.00;;;3.20;99.90;;;;;;5018765;28;20182;-79
2023/02/28 09:09:01;;;;;;;0.10;0.10;;;3.30;99.90;;;;;;5026159;28;20559;-79
2023/02/28 09:11:27;;;;;;;0.10;0.10;;;3.60;99.90;;;;;;5020613;28;20197;-80
2023/02/28 09:13:55;;;;;;;0.10;0.10;;;3.20;99.90;;;;;;5024275;28;20676;-80
2023/02/28 09:16:21;;;;;;;0.10;0.10;;;3.30;99.90;;;;;;5024446;28;20733;-79
2023/02/28 09:18:47;;;;;;;0.10;0.10;;;2.90;99.90;;;;;;5021789;28;20186;-79
2023/02/28 09:21:15;;;;;;;0.10;0.10;;;3.10;99.90;;;;;;5024658;28;20267;-79
2023/02/28 09:23:42;;;;;;;0.10;0.10;;;3.10;99.90;;;;;;5024686;28;20179;-79
2023/02/28 09:26:12;;;;;;;0.20;0.20;;;3.30;99.90;;;;;;5026545;28;20252;-80
2023/02/28 09:28:38;;;;;;;0.10;0.10;;;3.40;99.90;;;;;;5027059;28;20185;-81
2023/02/28 09:31:04;;;;;;;0.10;0.10;;;3.40;99.90;;;;;;5025768;28;20300;-80
2023/02/28 09:33:30;;;;;;;0.10;0.10;;;3.60;99.90;;;;;;5018804;28;20273;-81
2023/02/28 09:36:00;;;;;;;0.10;0.10;;;3.60;99.90;;;;;;5024863;28;20362;-81
2023/02/28 09:38:27;;;;;;;0.10;0.10;;;3.50;99.90;;;;;;5026498;28;20186;-78
2023/02/28 09:40:59;;;;;;;0.73;0.73;;;3.80;99.90;;;;;;5022046;28;20660;-80
2023/02/28 09:43:31;;;;;;;0.07;0.07;;;3.70;99.90;;;;;;5025331;28;20686;-79
2023/02/28 09:46:32;;;;;;;0.10;0.10;;;3.90;99.90;;;;;;5024073;28;20214;-80
2023/02/28 09:49:02;;;;;;;0.10;0.10;;;3.90;99.90;;;;;;5025794;28;20232;-82
2023/02/28 09:51:41;;;;;;;0.10;0.10;;;3.30;99.90;;;;;;5026004;28;20186;-82
2023/02/28 09:54:18;;;;;;;0.10;0.10;;;3.30;99.90;;;;;;5023113;28;20178;-79
2023/02/28 09:56:48;;;;;;;0.10;0.10;;;3.50;99.90;;;;;;5014438;28;20249;-79
2023/02/28 09:59:31;;;;;;;0.10;0.10;;;3.60;99.90;;;;;;5022633;28;20184;-79
2023/02/28 10:02:18;;;;;;;0.03;0.03;;;3.50;99.90;;;;;;5022855;28;20213;-79
2023/02/28 10:04:55;;;;;;;0.10;0.10;;;3.50;99.90;;;;;;5021486;28;20202;-79
2023/02/28 10:07:50;;;;;;;0.10;0.10;;;3.50;99.90;;;;;;5021769;28;20244;-79
2023/02/28 10:10:39;;;;;;;0.10;0.10;;;3.60;99.90;;;;;;5023457;28;20247;-79
2023/02/28 10:13:24;;;;;;;0.10;0.10;;;3.20;99.90;;;;;;5019753;28;20278;-80
2023/02/28 10:15:58;;;;;;;0.10;0.10;;;3.50;99.90;;;;;;5025069;28;20212;-80
2023/02/28 10:18:33;;;;;;;0.10;0.10;;;3.80;99.90;;;;;;5019450;28;20182;-80
2023/02/28 10:21:00;;;;;;;0.10;0.10;;;3.80;99.90;;;;;;5026672;28;20270;-80
2023/02/28 10:23:31;;;;;;;0.10;0.10;;;4.30;99.90;;;;;;5024850;28;20206;-80
2023/02/28 10:26:10;;;;;;;0.10;0.10;;;4.30;99.90;;;;;;5024407;28;20213;-80
2023/02/28 10:28:35;;;;;;;0.10;0.10;;;4.10;99.90;;;;;;5021624;28;20269;-80
2023/02/28 10:31:01;;;;;;;0.30;0.30;;;4.30;99.90;;;;;;5018630;28;20304;-80
2023/02/28 10:33:29;;;;;;;0.10;0.10;;;3.70;99.90;;;;;;5022781;28;20681;-81
2023/02/28 10:35:55;;;;;;;0.10;0.10;;;3.40;99.90;;;;;;5023795;28;20209;-81
2023/02/28 10:38:32;;;;;;;0.10;0.10;;;3.90;99.90;;;;;;5017789;28;20255;-80
2023/02/28 10:41:10;;;;;;;0.10;0.10;;;4.00;99.90;;;;;;5018590;28;20690;-80
2023/02/28 10:43:37;;;;;;;0.10;0.10;;;3.90;99.90;;;;;;5023494;28;20190;-81
2023/02/28 10:46:14;;;;;;;0.10;0.10;;;4.50;99.90;;;;;;5021686;28;20368;-80
2023/02/28 10:48:44;;;;;;;0.10;0.10;;;4.30;99.90;;;;;;5018970;28;20285;-80
2023/02/28 10:51:12;;;;;;;0.10;0.10;;;4.50;99.90;;;;;;5022404;28;20175;-79
2023/02/28 10:53:43;;;;;;;0.10;0.10;;;4.50;99.90;;;;;;5039166;28;20284;-80
2023/02/28 10:56:08;;;;;;;0.00;0.00;;;4.20;99.90;;;;;;5021256;28;20754;-80
2023/02/28 10:58:54;;;;;;;0.00;0.00;;;4.20;99.90;;;;;;5018243;28;20179;-80
2023/02/28 11:01:22;;;;;;;0.10;0.10;;;4.20;99.90;;;;;;5023556;28;20214;-80
2023/02/28 11:03:48;;;;;;;0.57;0.57;;;3.90;99.90;;;;;;5019967;28;20202;-80
2023/02/28 11:06:30;;;;;;;1.47;1.47;;;4.10;99.90;;;;;;5023390;28;20259;-80
2023/02/28 11:08:59;;;;;;;0.00;0.00;;;3.80;99.90;;;;;;5021481;28;20185;-80
2023/02/28 11:11:28;;;;;;;0.03;0.03;;;3.90;99.90;;;;;;5022370;28;20198;-80
2023/02/28 11:13:57;;;;;;;0.10;0.10;;;4.30;99.90;;;;;;5024512;28;20298;-80
2023/02/28 11:16:33;;;;;;;0.87;0.87;;;4.90;99.90;;;;;;5024387;28;20236;-80
2023/02/28 11:18:59;;;;;;;0.10;0.10;;;5.20;99.90;;;;;;5022642;28;20181;-80
2023/02/28 11:21:39;;;;;;;0.10;0.10;;;5.20;99.90;;;;;;5024090;28;20683;-79
2023/02/28 11:24:15;;;;;;;0.10;0.10;;;5.20;99.90;;;;;;5023567;28;20186;-80
2023/02/28 11:26:44;;;;;;;0.10;0.10;;;5.40;99.90;;;;;;5022570;28;20260;-81
2023/02/28 11:29:20;;;;;;;0.10;0.10;;;5.00;99.90;;;;;;5023761;28;20740;-80
2023/02/28 11:32:06;;;;;;;0.10;0.10;;;4.70;99.90;;;;;;5019737;28;21270;-80
2023/02/28 11:34:32;;;;;;;0.10;0.10;;;4.70;99.90;;;;;;5022792;28;20214;-80
2023/02/28 11:37:00;;;;;;;0.10;0.10;;;4.60;99.90;;;;;;5019129;28;20182;-80
2023/02/28 11:39:27;;;;;;;0.60;0.60;;;4.20;99.90;;;;;;5020479;28;20312;-80
2023/02/28 11:42:11;;;;;;;0.10;0.10;;;4.50;99.90;;;;;;5020148;28;20806;-80
2023/02/28 11:44:59;;;;;;;0.10;0.10;;;4.20;99.90;;;;;;5026811;28;20241;-80
2023/02/28 11:47:42;;;;;;;0.10;0.10;;;4.00;99.90;;;;;;5016899;28;20186;-80
2023/02/28 11:50:21;;;;;;;0.10;0.10;;;4.20;99.90;;;;;;5016161;28;20640;-80
2023/02/28 11:53:01;;;;;;;0.10;0.10;;;3.90;99.90;;;;;;5021804;28;20695;-80
2023/02/28 11:55:44;;;;;;;0.10;0.10;;;3.90;99.90;;;;;;5024121;28;21775;-80
2023/02/28 11:58:32;;;;;;;0.10;0.10;;;4.40;99.90;;;;;;5022009;28;20321;-80
2023/02/28 12:01:07;;;;;;;0.00;0.00;;;4.50;99.90;;;;;;5020757;28;20577;-80
2023/02/28 12:03:41;;;;;;;0.10;0.10;;;4.40;99.90;;;;;;5023277;28;20213;-80
2023/02/28 12:06:44;;;;;;;0.20;0.20;;;4.30;99.90;;;;;;5022279;28;20228;-80
2023/02/28 12:09:25;;;;;;;0.10;0.10;;;4.40;99.90;;;;;;5017858;28;20248;-80
2023/02/28 12:12:01;;;;;;;0.10;0.10;;;4.90;99.90;;;;;;5021817;28;20186;-80
2023/02/28 12:14:47;;;;;;;0.10;0.10;;;4.70;99.90;;;;;;5025691;28;20209;-80
2023/02/28 12:17:46;;;;;;;0.00;0.00;;;4.50;99.90;;;;;;5025720;28;20190;-80
2023/02/28 12:20:34;;;;;;;0.10;0.10;;;4.80;99.90;;;;;;5027169;28;20274;-80
2023/02/28 12:23:43;;;;;;;0.10;0.10;;;4.70;99.90;;;;;;5027338;28;20221;-80
2023/02/28 12:26:27;;;;;;;0.10;0.10;;;5.30;99.90;;;;;;5020579;28;20236;-80
2023/02/28 12:28:58;;;;;;;0.30;0.30;;;5.50;99.90;;;;;;5026097;28;20277;-80
2023/02/28 12:31:29;;;;;;;0.00;0.00;;;5.00;99.90;;;;;;5027183;28;20188;-80
2023/02/28 12:34:01;;;;;;;0.10;0.10;;;5.20;99.90;;;;;;5027454;28;20269;-80
2023/02/28 12:36:28;;;;;;;0.10;0.10;;;4.80;99.90;;;;;;5027414;28;20244;-80
2023/02/28 12:39:00;;;;;;;0.10;0.10;;;5.20;99.90;;;;;;5025650;28;20178;-80
2023/02/28 12:41:42;;;;;;;0.10;0.10;;;5.50;99.90;;;;;;5026261;28;20696;-80
2023/02/28 12:44:37;;;;;;;0.10;0.10;;;5.40;99.90;;;;;;5021403;28;20186;-81
2023/02/28 12:47:08;;;;;;;0.10;0.10;;;5.10;99.90;;;;;;5020986;28;20199;-80
2023/02/28 12:49:46;;;;;;;0.10;0.10;;;5.20;99.90;;;;;;5022870;28;20229;-80
2023/02/28 12:52:13;;;;;;;0.10;0.10;;;5.20;99.90;;;;;;5031969;28;20739;-80
2023/02/28 12:55:11;;;;;;;0.10;0.10;;;5.20;99.90;;;;;;5028552;28;20214;-80
2023/02/28 12:58:05;;;;;;;0.10;0.10;;;5.30;99.90;;;;;;5030905;28;20243;-80
2023/02/28 13:00:37;;;;;;;0.03;0.03;;;5.30;99.90;;;;;;5027850;28;20275;-80
2023/02/28 13:03:11;;;;;;;0.10;0.10;;;5.60;99.90;;;;;;5027703;28;20207;-81
2023/02/28 13:05:58;;;;;;;0.10;0.10;;;5.50;99.90;;;;;;5027086;28;20680;-81
2023/02/28 13:08:59;;;;;;;0.10;0.10;;;5.60;99.90;;;;;;5026368;28;20194;-81
2023/02/28 13:11:55;;;;;;;0.00;0.00;;;5.00;99.90;;;;;;5024377;28;20222;-80